Aérodrome :







RETROUVEZ-NOUS SUR...

 
LOGIN :

S'inscrire | Disclaimer

   EN    FR    IT 

 









Légende :    VFR   VFR Marginal   IFR   IFR Intensif   IFR Très Intensif
Visi : 
Plafond : 
>= 8 km
>= 3000ft
5 à 8 km
1000 à 3000 ft
1500m à 5 km
500 à 1000 ft
800 à 1500m
200 à 500 ft
< 800m
< 200 ft
Symboles :   Orages  Brouillard  Fortes neiges  Fortes précipitations  Vent > 20 kt






- Altitude de l'aérodrome : 26 ft
- Code IATA : BLA


SVBC - Gen. Jose Antonio Anzoategui I

DERNIER METAR :
  • 301002Z AUTO 07002KT NCD 25/21 Q1012

METARs EXPIRÉS :
  • 300902Z AUTO 02003KT NCD 26/21 Q1012
  • 300802Z AUTO 10001KT NCD 26/20 Q1012

TAF TAF SVBC
Valide du 30 à 06h jusqu'au 31 à 06h UTC


300400Z 3006/3106 14005KT 9999 FEW016 SCT070 TX33/19Z TN24/08Z
BECMG 3006/3010 12004KT SCT016



MET'MAP, la Météo Aéronautique d'un coup d'oeil ! - Copyright ORBIFLY Décembre 2007 - Disclaimer

ORBIFLY MET'MAP TEAM :

Programmation & Développement : Alexandra Zaïnal
Sur une idée originale de : Baudouin d'Aumeries
Assistance à la programmation : Marc-Olivier Méhu
Soutien technique & logistique : Manuel Goepfert

Contact : metmap@orbifly.com




SOURCES & CREDITS :

   NOAA